Time;durP1;ratioP1;P1;durP2;ratioP2;P2;SDS_P1;SDS_P2;PMS_P1;PMS_P2;Temp;Humidity;BMP_temperature;BMP_pressure;BME280_temperature;BME280_humidity;BME280_pressure;Samples;Min_cycle;Max_cycle;Signal;HPM_P1;HPM_P2
2022/01/28 00:02:33;;;;;;;16.20;5.57;;;;;;;4.81;92.66;102236.75;4985118;28;20119;-84
2022/01/28 00:05:00;;;;;;;16.30;4.80;;;;;;;4.86;92.44;102232.16;4969914;28;20063;-83
2022/01/28 00:07:28;;;;;;;22.45;5.05;;;;;;;4.82;92.88;102232.41;4964753;29;20031;-83
2022/01/28 00:09:54;;;;;;;18.38;4.90;;;;;;;4.92;92.47;102254.34;4964536;29;20055;-84
2022/01/28 00:12:23;;;;;;;17.48;4.80;;;;;;;4.92;92.86;102260.38;4964886;29;20115;-85
2022/01/28 00:14:54;;;;;;;22.67;4.80;;;;;;;4.99;92.49;102261.75;4981939;28;20474;-85
2022/01/28 00:36:45;;;;;;;19.67;4.10;;;;;;;5.05;89.58;102322.84;4984536;28;20050;-84
2022/01/28 00:39:14;;;;;;;14.25;4.05;;;;;;;4.93;89.50;102308.75;4989897;28;20043;-85
2022/01/28 00:41:40;;;;;;;17.02;4.53;;;;;;;5.04;89.21;102325.53;4990305;28;20082;-84
2022/01/28 00:44:07;;;;;;;15.93;4.15;;;;;;;5.03;89.05;102339.41;4989704;28;20062;-84
2022/01/28 00:46:34;;;;;;;16.50;5.13;;;;;;;4.96;89.80;102339.72;4988884;28;20061;-84
2022/01/28 00:49:00;;;;;;;17.52;4.35;;;;;;;5.02;89.84;102356.72;4994107;28;20043;-84
2022/01/28 00:51:27;;;;;;;19.35;4.38;;;;;;;5.03;89.64;102360.16;4991881;28;20094;-86
2022/01/28 01:05:06;;;;;;;19.83;4.40;;;;;;;4.84;88.18;102348.13;3294361;26;20052;-87
2022/01/28 01:07:39;;;;;;;15.32;4.60;;;;;;;4.71;88.50;102339.28;4950584;29;20056;-87
2022/01/28 01:10:16;;;;;;;19.20;4.85;;;;;;;4.78;89.37;102361.38;4951490;29;20052;-86
2022/01/28 01:12:45;;;;;;;13.55;4.28;;;;;;;4.72;88.17;102351.34;4950575;29;20654;-85
2022/01/28 01:15:18;;;;;;;15.45;4.60;;;;;;;4.63;88.91;102351.81;4949763;29;20043;-86
2022/01/28 01:18:08;;;;;;;16.38;4.95;;;;;;;4.57;89.42;102367.66;4950788;29;20040;-86
2022/01/28 01:30:40;;;;;;;15.43;4.93;;;;;;;4.34;90.05;102387.72;4851992;29;20068;-85
2022/01/28 01:34:11;;;;;;;19.60;5.32;;;;;;;4.25;90.42;102392.53;4888428;29;20057;-86
2022/01/28 01:36:48;;;;;;;18.67;4.60;;;;;;;4.28;89.88;102400.97;4888309;29;20061;-86
2022/01/28 01:39:22;;;;;;;22.45;4.53;;;;;;;4.20;90.78;102379.78;4892506;29;20510;-88
2022/01/28 01:41:54;;;;;;;10.38;4.50;;;;;;;4.16;90.49;102392.97;4921719;29;20071;-86
2022/01/28 01:44:48;;;;;;;15.07;4.43;;;;;;;4.15;90.48;102392.13;4950030;29;20051;-87
2022/01/28 01:52:54;;;;;;;19.52;4.50;;;;;;;4.13;89.86;102406.91;4949236;29;20439;-86
2022/01/28 01:58:44;;;;;;;17.23;4.20;;;;;;;3.82;90.11;102389.31;4945730;29;20484;-86
2022/01/28 02:01:19;;;;;;;16.48;4.60;;;;;;;3.76;89.97;102383.59;4947601;29;20086;-86
2022/01/28 02:09:50;;;;;;;15.88;4.50;;;;;;;3.54;91.76;102409.59;4966950;29;20067;-86
2022/01/28 02:12:17;;;;;;;16.52;4.80;;;;;;;3.48;92.07;102421.06;4968505;29;20640;-86
2022/01/28 02:14:44;;;;;;;18.10;4.65;;;;;;;3.57;92.24;102435.34;4974882;29;20041;-85
2022/01/28 02:17:15;;;;;;;20.77;5.65;;;;;;;3.49;92.39;102427.91;4977398;28;20059;-86
2022/01/28 02:19:44;;;;;;;21.95;4.93;;;;;;;3.49;92.12;102435.69;4971599;29;20055;-86
2022/01/28 02:22:48;;;;;;;25.52;4.80;;;;;;;3.57;91.79;102436.19;4962335;29;20059;-87
2022/01/28 02:25:29;;;;;;;20.38;4.88;;;;;;;3.45;92.39;102430.69;4961227;29;20058;-86
2022/01/28 02:27:59;;;;;;;16.05;4.72;;;;;;;3.49;92.06;102442.59;4960950;29;20475;-86
2022/01/28 02:30:26;;;;;;;27.85;4.57;;;;;;;3.40;91.41;102438.66;4976663;29;20046;-86
2022/01/28 02:32:58;;;;;;;18.55;4.63;;;;;;;3.46;91.55;102461.69;4978763;28;20047;-85
2022/01/28 02:35:25;;;;;;;19.42;4.63;;;;;;;3.38;91.89;102448.22;4979422;29;20075;-85
2022/01/28 02:37:52;;;;;;;20.25;5.93;;;;;;;3.43;91.24;102473.91;4975968;28;20070;-85
2022/01/28 02:40:19;;;;;;;24.80;5.10;;;;;;;3.36;91.19;102469.91;4964602;29;20102;-86
2022/01/28 02:42:54;;;;;;;21.65;4.50;;;;;;;3.40;91.32;102469.72;4964651;29;20524;-86
2022/01/28 02:45:28;;;;;;;18.10;4.50;;;;;;;3.45;91.33;102472.94;4964083;29;20139;-86
2022/01/28 02:47:59;;;;;;;16.08;4.95;;;;;;;3.38;91.87;102468.94;4967218;23;20048;-87
2022/01/28 02:50:28;;;;;;;16.33;4.57;;;;;;;3.50;91.19;102473.59;4942636;29;20082;-82
2022/01/28 02:53:05;;;;;;;16.88;5.13;;;;;;;3.52;91.79;102469.19;4942839;29;20047;-84
2022/01/28 02:55:37;;;;;;;21.88;5.18;;;;;;;3.55;91.68;102478.56;4941530;29;20512;-81
2022/01/28 02:58:16;;;;;;;17.08;4.57;;;;;;;3.62;91.61;102478.25;4940864;29;20508;-83
2022/01/28 03:00:43;;;;;;;12.40;4.60;;;;;;;3.59;91.88;102473.19;4943115;29;20086;-83
2022/01/28 03:03:13;;;;;;;19.40;5.30;;;;;;;3.54;91.85;102472.56;4943413;29;20083;-83
2022/01/28 03:05:40;;;;;;;22.20;5.40;;;;;;;3.41;91.64;102461.03;4945215;29;20051;-85
2022/01/28 03:08:34;;;;;;;17.30;5.07;;;;;;;3.51;91.73;102477.88;4946569;29;20352;-82
2022/01/28 03:11:41;;;;;;;26.48;4.70;;;;;;;3.47;92.05;102476.31;4947294;29;20489;-83
2022/01/28 03:18:40;;;;;;;;;;;;;;;;;;;;;
2022/01/28 03:21:28;;;;;;;13.38;4.18;;;;;;;3.44;91.78;102502.31;4943314;29;20055;-83
2022/01/28 03:31:42;;;;;;;;;;;;;;;;;;;;;
2022/01/28 03:44:54;;;;;;;16.83;4.38;;;;;;;3.41;91.89;102511.94;4845380;29;20092;-84
2022/01/28 03:47:28;;;;;;;17.50;4.57;;;;;;;3.44;91.43;102523.03;4863519;29;20173;-82
2022/01/28 03:50:57;;;;;;;;;;;;;;;;;;;;;
2022/01/28 03:57:09;;;;;;;16.60;4.55;;;;;;;3.37;91.68;102537.13;4916243;29;20059;-82
2022/01/28 03:59:45;;;;;;;23.75;4.75;;;;;;;3.30;92.35;102540.88;4956683;29;20699;-81
2022/01/28 04:14:18;;;;;;;14.57;4.38;;;;;;;3.34;91.72;102563.13;4896388;29;20057;-81
2022/01/28 04:19:39;;;;;;;17.52;4.53;;;;;;;3.24;91.54;102562.66;4921523;29;20047;-80
2022/01/28 04:22:06;;;;;;;13.55;4.35;;;;;;;3.34;91.81;102568.28;4955749;29;20141;-81
2022/01/28 04:24:35;;;;;;;14.05;4.07;;;;;;;3.28;92.27;102560.81;4955133;29;20404;-80
2022/01/28 04:27:13;;;;;;;22.23;5.30;;;;;;;3.26;92.16;102572.97;4955119;29;20055;-79
2022/01/28 04:29:45;;;;;;;20.48;4.50;;;;;;;3.11;92.20;102550.28;4955010;29;20051;-80
2022/01/28 05:00:13;;;;;;;14.88;4.15;;;;;;;2.77;92.87;102561.13;4832402;29;20121;-80
2022/01/28 05:06:19;;;;;;;18.13;4.35;;;;;;;2.90;93.29;102608.84;4938702;29;20060;-81
2022/01/28 06:03:41;;;;;;;13.88;4.93;;;;;;;2.81;93.85;102650.59;4926611;29;20033;-86
2022/01/28 06:06:39;;;;;;;15.93;5.03;;;;;;;2.62;94.12;102632.31;4889403;29;20083;-85
2022/01/28 06:13:21;;;;;;;16.83;5.20;;;;;;;2.53;94.75;102646.41;4875635;29;20108;-88
2022/01/28 06:16:15;;;;;;;16.98;5.15;;;;;;;2.57;95.08;102653.16;4921392;29;20055;-86
2022/01/28 06:21:59;;;;;;;21.08;5.68;;;;;;;2.64;95.65;102679.63;4940455;29;20055;-86
2022/01/28 06:45:32;;;;;;;22.60;7.05;;;;;;;2.42;96.88;102714.84;4869614;29;20066;-85
2022/01/28 06:48:20;;;;;;;25.95;8.07;;;;;;;2.48;96.90;102719.81;4987404;23;20055;-84
2022/01/28 06:50:53;;;;;;;24.38;7.13;;;;;;;2.43;97.14;102717.41;4971066;29;20047;-87
2022/01/28 06:53:19;;;;;;;;;;;;;;;2.39;97.40;102720.13;4971314;28;20059;-85
2022/01/28 06:55:46;;;;;;;24.08;7.18;;;;;;;2.39;97.45;102723.56;4969867;29;20276;-84
2022/01/28 06:58:13;;;;;;;27.48;7.93;;;;;;;2.27;97.17;102696.44;4970055;28;20106;-85
2022/01/28 07:00:41;;;;;;;22.30;7.18;;;;;;;2.45;96.90;102727.69;4973851;28;20101;-82
2022/01/28 07:03:09;;;;;;;21.42;6.95;;;;;;;2.51;96.82;102730.06;4989323;28;20220;-83
2022/01/28 07:05:37;;;;;;;25.75;6.82;;;;;;;2.48;96.83;102740.50;4989808;28;20046;-83
2022/01/28 07:08:05;;;;;;;26.88;7.10;;;;;;;2.33;97.23;102722.06;4987558;28;20054;-83
2022/01/28 07:10:32;;;;;;;21.70;7.50;;;;;;;2.44;97.07;102738.91;4989250;28;20085;-83
2022/01/28 07:12:59;;;;;;;19.90;6.75;;;;;;;2.38;96.95;102724.44;4989776;28;20046;-83
2022/01/28 07:15:27;;;;;;;18.35;7.25;;;;;;;2.33;96.74;102716.03;4989361;28;20077;-83
2022/01/28 07:18:20;;;;;;;24.10;6.75;;;;;;;2.31;97.18;102718.69;4986667;28;20051;-84
2022/01/28 07:20:56;;;;;;;19.23;6.77;;;;;;;2.27;97.51;102721.41;4982268;28;20121;-85
2022/01/28 07:23:29;;;;;;;19.60;6.35;;;;;;;2.32;96.92;102720.38;4982919;28;20348;-86
2022/01/28 07:25:57;;;;;;;23.17;6.78;;;;;;;2.46;96.69;102747.44;4984014;28;20062;-86
2022/01/28 07:31:15;;;;;;;25.13;6.60;;;;;;;2.40;96.39;102734.75;4984954;28;20046;-86
2022/01/28 07:33:48;;;;;;;24.08;7.18;;;;;;;2.53;96.63;102767.03;4985909;28;20050;-87
2022/01/28 07:36:20;;;;;;;25.75;6.95;;;;;;;2.52;96.59;102758.44;4967950;28;20058;-86
2022/01/28 07:38:53;;;;;;;21.55;6.70;;;;;;;2.52;96.59;102767.91;4955808;28;20051;-85
2022/01/28 07:41:20;;;;;;;27.60;6.82;;;;;;;2.51;96.41;102763.66;4945114;29;20055;-87
2022/01/28 07:43:48;;;;;;;19.92;6.68;;;;;;;2.54;96.43;102755.78;4953756;29;20055;-85
2022/01/28 07:46:17;;;;;;;19.60;7.88;;;;;;;2.59;96.47;102772.00;4960942;29;20055;-87
2022/01/28 07:48:50;;;;;;;25.38;7.07;;;;;;;2.71;96.07;102784.50;4964244;28;20054;-87
2022/01/28 07:51:17;;;;;;;27.13;7.68;;;;;;;2.69;95.75;102770.78;4966824;29;20074;-86
2022/01/28 07:53:44;;;;;;;19.02;6.50;;;;;;;2.88;95.37;102760.63;4964333;29;20032;-86
2022/01/28 07:56:16;;;;;;;17.73;6.32;;;;;;;3.19;93.93;102779.31;4964847;29;20117;-87
2022/01/28 07:58:53;;;;;;;16.50;6.45;;;;;;;3.23;93.87;102761.94;4960107;28;20035;-86
2022/01/28 08:01:22;;;;;;;21.75;7.43;;;;;;;3.38;92.30;102766.53;4959572;29;20056;-87
2022/01/28 08:03:54;;;;;;;21.40;6.57;;;;;;;3.60;92.13;102771.75;4957669;29;20039;-87
2022/01/28 08:06:25;;;;;;;28.15;7.03;;;;;;;3.67;91.85;102763.69;4958520;29;20046;-88
2022/01/28 08:08:53;;;;;;;19.67;8.20;;;;;;;3.90;91.39;102799.03;4957946;29;20055;-86
2022/01/28 08:11:23;;;;;;;26.30;6.95;;;;;;;4.00;90.48;102781.38;4957739;29;20059;-86
2022/01/28 08:13:53;;;;;;;20.88;7.57;;;;;;;4.10;90.03;102782.69;4955944;29;20077;-88
2022/01/28 08:16:21;;;;;;;25.60;7.00;;;;;;;4.20;90.19;102794.38;4951838;29;20090;-87
2022/01/28 08:18:52;;;;;;;23.33;6.47;;;;;;;4.45;89.15;102783.84;4948043;29;20051;-87
2022/01/28 08:21:23;;;;;;;27.08;7.88;;;;;;;4.54;88.60;102782.63;4945759;29;20047;-87
2022/01/28 08:24:01;;;;;;;22.95;6.63;;;;;;;4.95;87.58;102797.25;4949981;29;20091;-86
2022/01/28 08:26:42;;;;;;;18.80;7.07;;;;;;;4.81;87.67;102796.97;4946320;29;20051;-86
2022/01/28 08:29:11;;;;;;;18.23;7.03;;;;;;;4.72;87.64;102791.38;4945467;29;20142;-87
2022/01/28 08:31:46;;;;;;;22.55;7.25;;;;;;;4.51;88.93;102793.13;4946631;29;20056;-87
2022/01/28 08:34:20;;;;;;;20.65;7.50;;;;;;;4.39;89.35;102807.41;4949161;29;20080;-86
2022/01/28 08:36:48;;;;;;;24.15;8.68;;;;;;;4.28;90.41;102802.66;4953142;29;20055;-87
2022/01/28 08:39:22;;;;;;;21.10;7.82;;;;;;;4.34;90.13;102823.16;4953573;29;20118;-85
2022/01/28 08:41:51;;;;;;;24.08;8.02;;;;;;;4.23;90.46;102812.41;4953696;29;20048;-85
2022/01/28 08:44:18;;;;;;;21.85;10.25;;;;;;;4.30;91.17;102834.56;4953696;29;20056;-87
2022/01/28 08:53:20;;;;;;;22.55;9.00;;;;;;;4.43;91.23;102847.88;4909617;29;20048;-83
2022/01/28 08:56:48;;;;;;;25.23;9.30;;;;;;;4.41;90.41;102839.31;4908926;29;20057;-82
2022/01/28 08:59:22;;;;;;;23.83;9.30;;;;;;;4.26;90.77;102812.25;4888797;29;20061;-80
2022/01/28 09:02:22;;;;;;;28.77;9.38;;;;;;;4.44;91.19;102833.16;4901404;29;20123;-83
2022/01/28 09:05:20;;;;;;;27.67;10.10;;;;;;;4.37;91.49;102844.69;4872370;29;20053;-82
2022/01/28 09:17:33;;;;;;;23.98;10.32;;;;;;;4.15;91.75;102811.88;4930179;29;20051;-83
2022/01/28 09:20:38;;;;;;;23.15;11.30;;;;;;;4.14;92.28;102819.69;4930907;29;20052;-81
2022/01/28 09:29:55;;;;;;;26.47;12.30;;;;;;;4.37;92.15;102824.78;4897561;29;20052;-83
2022/01/28 09:35:17;;;;;;;29.98;13.20;;;;;;;4.45;92.64;102861.63;4923633;29;20430;-84
2022/01/28 09:37:44;;;;;;;28.88;12.55;;;;;;;4.51;92.57;102863.13;4927248;29;20115;-83
2022/01/28 09:40:14;;;;;;;27.65;12.27;;;;;;;4.67;90.89;102864.19;4930650;29;20064;-82
2022/01/28 09:42:44;;;;;;;37.13;12.82;;;;;;;4.80;91.39;102859.31;4932172;29;20067;-83
2022/01/28 09:45:16;;;;;;;23.48;12.05;;;;;;;4.81;91.22;102873.97;4931819;29;20052;-83
2022/01/28 09:47:46;;;;;;;24.85;11.80;;;;;;;4.81;90.93;102880.00;4935497;29;20059;-82
2022/01/28 09:50:15;;;;;;;26.20;12.27;;;;;;;4.79;91.40;102871.44;4952398;29;20047;-82
2022/01/28 09:52:42;;;;;;;26.02;12.20;;;;;;;4.81;91.69;102880.00;4952251;29;20079;-82
2022/01/28 09:55:10;;;;;;;27.15;12.30;;;;;;;4.83;91.05;102885.97;4958121;29;20048;-84
2022/01/28 09:57:37;;;;;;;27.25;13.00;;;;;;;4.81;91.12;102882.59;4957555;29;20067;-82
2022/01/28 10:00:08;;;;;;;25.27;13.52;;;;;;;4.87;91.04;102892.72;4957348;29;20119;-81
2022/01/28 10:02:49;;;;;;;30.60;13.15;;;;;;;4.85;91.28;102885.91;4952728;29;20103;-82
2022/01/28 10:05:23;;;;;;;26.98;12.13;;;;;;;4.93;91.14;102873.44;4956818;29;20079;-83
2022/01/28 10:08:00;;;;;;;26.70;12.57;;;;;;;5.07;90.41;102880.66;4958628;29;20073;-83
2022/01/28 10:10:27;;;;;;;26.80;12.55;;;;;;;5.14;90.07;102889.88;4957649;29;20108;-81
2022/01/28 10:13:09;;;;;;;22.27;11.52;;;;;;;5.15;89.67;102879.41;4958209;29;20040;-83
2022/01/28 10:15:51;;;;;;;26.52;11.55;;;;;;;5.21;89.37;102899.91;4954543;29;20054;-80
2022/01/28 10:18:18;;;;;;;30.00;11.27;;;;;;;5.25;89.29;102898.84;4955582;29;20047;-80
2022/01/28 10:20:45;;;;;;;21.25;10.65;;;;;;;5.34;89.02;102901.06;4955213;29;20082;-82
2022/01/28 10:23:13;;;;;;;32.25;11.88;;;;;;;5.35;89.26;102901.91;4955445;29;20036;-82
2022/01/28 10:25:42;;;;;;;26.92;10.95;;;;;;;5.40;88.35;102907.75;4955438;29;20071;-81
2022/01/28 10:28:11;;;;;;;27.48;11.77;;;;;;;5.42;88.70;102918.06;4954533;29;20040;-80
2022/01/28 10:30:41;;;;;;;23.35;12.07;;;;;;;5.65;88.28;102916.16;4955129;29;20051;-82
2022/01/28 10:33:14;;;;;;;22.15;9.98;;;;;;;5.79;87.48;102912.06;4955106;29;20035;-82
2022/01/28 10:35:49;;;;;;;22.45;9.00;;;;;;;5.85;86.54;102907.44;4954712;29;20067;-82
2022/01/28 10:38:28;;;;;;;23.42;9.80;;;;;;;5.94;86.95;102916.59;4955540;29;20078;-81
2022/01/28 10:41:07;;;;;;;23.00;8.27;;;;;;;5.98;84.86;102906.00;4955031;29;20063;-82
2022/01/28 10:43:42;;;;;;;25.73;7.90;;;;;;;6.19;83.48;102898.94;4955160;29;20074;-81
2022/01/28 10:46:11;;;;;;;20.10;6.30;;;;;;;6.40;81.08;102909.25;4954415;29;20090;-83
2022/01/28 10:48:55;;;;;;;19.30;9.07;;;;;;;6.66;82.79;102894.03;4954096;29;20082;-81
2022/01/28 10:51:36;;;;;;;20.70;9.43;;;;;;;6.76;83.53;102902.25;4953995;29;20052;-82
2022/01/28 10:54:05;;;;;;;25.65;8.82;;;;;;;6.64;82.50;102893.28;4953715;29;20051;-82
2022/01/28 10:56:46;;;;;;;28.60;9.32;;;;;;;6.74;82.81;102887.63;4956504;29;20059;-81
2022/01/28 10:59:16;;;;;;;22.23;8.98;;;;;;;6.72;83.27;102895.50;4956123;29;20095;-80
2022/01/28 11:01:45;;;;;;;25.98;9.27;;;;;;;6.44;84.05;102887.38;4954545;29;20082;-81
2022/01/28 11:04:14;;;;;;;20.58;8.90;;;;;;;6.48;84.27;102892.34;4947572;29;20056;-81
2022/01/28 11:06:45;;;;;;;20.33;8.80;;;;;;;6.60;84.00;102896.97;4947231;29;20585;-81
2022/01/28 11:09:13;;;;;;;25.85;7.95;;;;;;;6.67;82.48;102892.28;4947772;29;20075;-81
2022/01/28 11:11:43;;;;;;;16.48;7.07;;;;;;;6.79;81.29;102902.09;4945393;29;20523;-81
2022/01/28 11:14:10;;;;;;;16.15;5.68;;;;;;;6.84;76.36;102894.91;4943748;29;20583;-81
2022/01/28 11:16:41;;;;;;;19.20;5.20;;;;;;;6.85;75.87;102893.13;4943008;29;20063;-80
2022/01/28 11:19:14;;;;;;;16.67;5.30;;;;;;;6.94;74.97;102885.72;4942651;29;20051;-81
2022/01/28 11:22:14;;;;;;;18.73;4.80;;;;;;;6.79;73.43;102899.50;4941639;29;20090;-82
2022/01/28 11:25:16;;;;;;;21.75;5.35;;;;;;;6.79;73.08;102890.84;4942085;29;20066;-82
2022/01/28 11:27:49;;;;;;;16.02;5.43;;;;;;;6.78;74.51;102883.94;4931632;29;20047;-81
2022/01/28 11:30:25;;;;;;;16.70;5.25;;;;;;;6.55;74.51;102896.34;4943312;29;20052;-82
2022/01/28 11:33:11;;;;;;;10.43;4.93;;;;;;;6.44;75.68;102895.19;4946549;29;20099;-81
2022/01/28 11:35:43;;;;;;;15.95;5.65;;;;;;;6.39;75.94;102912.75;4942265;29;20048;-82
2022/01/28 11:38:35;;;;;;;17.77;5.30;;;;;;;6.28;77.35;102915.88;4943133;29;20064;-82
2022/01/28 11:41:24;;;;;;;20.98;6.72;;;;;;;6.38;77.35;102911.06;4947928;29;20470;-81
2022/01/28 11:43:56;;;;;;;20.83;6.75;;;;;;;6.43;77.84;102909.94;4946427;29;20603;-82
2022/01/28 11:46:30;;;;;;;14.00;6.25;;;;;;;6.42;78.49;102890.06;4946293;29;20063;-81
2022/01/28 11:49:24;;;;;;;14.40;6.53;;;;;;;6.43;78.13;102886.53;4947070;29;20130;-82
2022/01/28 11:52:06;;;;;;;;;;;;;;;;;;;;;
2022/01/28 11:54:41;;;;;;;16.40;6.80;;;;;;;6.29;78.13;102884.59;4948284;29;20048;-82
2022/01/28 11:57:29;;;;;;;14.88;5.53;;;;;;;6.06;78.14;102861.47;4948250;29;20862;-82
2022/01/28 12:00:33;;;;;;;14.98;5.30;;;;;;;6.14;78.46;102876.69;4947570;29;20060;-81
2022/01/28 12:03:29;;;;;;;25.00;6.22;;;;;;;5.97;77.82;102851.50;4948244;29;20083;-82
2022/01/28 12:05:59;;;;;;;16.42;5.43;;;;;;;6.10;78.20;102868.19;4948067;29;20048;-82
2022/01/28 12:08:55;;;;;;;16.40;5.13;;;;;;;6.14;77.22;102882.75;4947887;29;20063;-81
2022/01/28 12:11:51;;;;;;;14.77;5.35;;;;;;;5.91;77.05;102843.97;4951596;29;20054;-81
2022/01/28 12:15:08;;;;;;;16.08;4.72;;;;;;;5.99;76.67;102850.50;4953757;29;20147;-82
2022/01/28 12:17:51;;;;;;;18.30;5.53;;;;;;;5.98;76.73;102859.22;4951011;29;20063;-82
2022/01/28 12:20:44;;;;;;;15.27;4.85;;;;;;;6.02;76.26;102870.31;4950883;29;20083;-81
2022/01/28 12:23:44;;;;;;;15.32;4.63;;;;;;;6.10;77.01;102865.59;4950414;29;20111;-81
2022/01/28 12:26:21;;;;;;;14.85;4.47;;;;;;;6.28;75.92;102869.06;4951232;29;20055;-81
2022/01/28 12:29:00;;;;;;;14.38;5.03;;;;;;;6.43;75.61;102868.34;4950060;29;20052;-83
2022/01/28 12:32:01;;;;;;;14.23;4.43;;;;;;;6.45;74.51;102847.44;4953622;29;20072;-83
2022/01/28 12:35:25;;;;;;;;;;;;;;;;;;;;;
2022/01/28 12:40:51;;;;;;;10.68;3.83;;;;;;;6.27;73.15;102852.63;4951705;29;20548;-82
2022/01/28 12:43:27;;;;;;;16.65;5.15;;;;;;;6.04;73.63;102824.31;4951748;29;20051;-82
2022/01/28 12:46:03;;;;;;;13.60;4.18;;;;;;;6.31;74.08;102851.56;4952216;29;20051;-81
2022/01/28 12:48:31;;;;;;;13.32;4.35;;;;;;;6.10;72.65;102829.22;4949109;29;20083;-82
2022/01/28 12:51:25;;;;;;;19.60;4.70;;;;;;;6.32;73.14;102853.25;4949766;29;20062;-83
2022/01/28 12:56:58;;;;;;;11.35;3.53;;;;;;;6.27;72.14;102852.63;4953189;29;20098;-82
2022/01/28 12:59:37;;;;;;;8.00;3.17;;;;;;;6.30;73.03;102842.06;4954134;29;20059;-83
2022/01/28 13:02:32;;;;;;;11.98;4.05;;;;;;;6.41;74.44;102831.16;4953474;29;20123;-82
2022/01/28 13:05:37;;;;;;;18.15;4.63;;;;;;;6.45;75.30;102852.66;4952554;29;20056;-83
2022/01/28 13:10:57;;;;;;;15.35;4.90;;;;;;;6.15;74.95;102811.59;4951415;29;20115;-82
2022/01/28 13:20:16;;;;;;;28.75;4.55;;;;;;;6.40;75.21;102819.06;4946868;29;20052;-83
2022/01/28 13:22:56;;;;;;;14.77;4.43;;;;;;;6.49;74.67;102815.16;4950175;29;20054;-82
2022/01/28 13:25:31;;;;;;;17.55;4.53;;;;;;;6.57;74.54;102806.06;4951434;29;20071;-82
2022/01/28 13:28:03;;;;;;;16.52;4.65;;;;;;;6.80;73.93;102820.50;4950950;29;20063;-82
2022/01/28 13:30:39;;;;;;;16.40;5.13;;;;;;;6.74;74.17;102804.34;4949789;29;20060;-81
2022/01/28 13:33:12;;;;;;;10.98;4.60;;;;;;;6.68;73.89;102792.50;4949788;29;20337;-81
2022/01/28 13:35:39;;;;;;;14.82;5.03;;;;;;;6.77;74.24;102789.44;4952564;29;20047;-82
2022/01/28 13:38:20;;;;;;;16.42;5.50;;;;;;;6.92;75.14;102809.47;4952525;29;20052;-82
2022/01/28 13:40:50;;;;;;;19.73;6.72;;;;;;;7.10;74.75;102809.41;4951737;29;20142;-83
2022/01/28 13:46:48;;;;;;;;;;;;;;;;;;;;;
2022/01/28 13:49:18;;;;;;;19.85;6.13;;;;;;;7.18;74.38;102779.44;4951754;29;20058;-83
2022/01/28 13:52:16;;;;;;;14.40;6.72;;;;;;;7.38;74.16;102770.59;4952445;29;20051;-83
2022/01/28 13:54:53;;;;;;;22.75;6.85;;;;;;;7.70;73.35;102797.47;4951916;29;20147;-83
2022/01/28 13:57:53;;;;;;;20.85;6.43;;;;;;;7.72;74.03;102784.34;5073308;23;20026;-81
2022/01/28 14:03:54;;;;;;;17.92;6.22;;;;;;;7.76;73.50;102788.47;4931455;29;20060;-82
2022/01/28 14:07:09;;;;;;;20.13;6.57;;;;;;;7.56;73.58;102761.75;4918514;29;20056;-82
2022/01/28 14:12:43;;;;;;;15.63;5.88;;;;;;;7.54;74.55;102771.44;4955807;23;20040;-84
2022/01/28 14:15:26;;;;;;;17.73;6.10;;;;;;;7.50;73.65;102767.31;4968033;28;20051;-86
2022/01/28 14:17:53;;;;;;;;;;;;;;;7.47;74.53;102764.88;4969517;29;20097;-85
2022/01/28 14:20:21;;;;;;;14.68;6.25;;;;;;;7.26;73.73;102756.44;4969619;29;19922;-84
2022/01/28 14:22:48;;;;;;;14.27;6.97;;;;;;;7.15;73.95;102764.00;4970800;29;20138;-84
2022/01/28 14:25:15;;;;;;;16.40;7.10;;;;;;;7.04;74.04;102768.94;4974920;28;20484;-85
2022/01/28 14:28:12;;;;;;;15.45;8.05;;;;;;;6.96;74.91;102769.34;4968246;29;20051;-84
2022/01/28 14:30:40;;;;;;;17.90;7.82;;;;;;;6.81;76.08;102759.72;4967648;29;20058;-85
2022/01/28 14:33:15;;;;;;;15.63;7.32;;;;;;;6.80;75.72;102771.06;4966195;28;20063;-85
2022/01/28 14:35:43;;;;;;;15.35;7.30;;;;;;;6.93;75.61;102774.72;4966992;28;20047;-84
2022/01/28 14:38:11;;;;;;;14.02;8.32;;;;;;;6.97;76.05;102765.81;4966826;28;20508;-86
2022/01/28 14:40:38;;;;;;;18.63;5.25;;;;;;;6.99;74.34;102773.56;4967537;29;20055;-85
2022/01/28 14:43:06;;;;;;;10.50;5.07;;;;;;;6.99;73.79;102763.16;4967135;28;20058;-85
2022/01/28 14:45:33;;;;;;;16.08;6.40;;;;;;;7.09;73.77;102784.34;4966535;29;20062;-86
2022/01/28 14:48:03;;;;;;;19.48;7.28;;;;;;;7.01;75.88;102783.88;4967548;29;20055;-84
2022/01/28 14:50:29;;;;;;;15.15;7.40;;;;;;;7.01;75.84;102768.28;4967147;29;20146;-85
2022/01/28 14:52:58;;;;;;;18.35;8.80;;;;;;;6.97;76.15;102778.84;4966545;29;20138;-85
2022/01/28 14:55:30;;;;;;;24.55;8.35;;;;;;;6.89;75.56;102772.34;4966385;29;20055;-85
2022/01/28 14:57:57;;;;;;;20.03;7.20;;;;;;;6.96;76.05;102789.34;4966904;29;20055;-86
2022/01/28 15:00:28;;;;;;;20.70;7.82;;;;;;;6.88;76.33;102776.72;4967510;29;20051;-86
2022/01/28 15:02:59;;;;;;;20.88;8.50;;;;;;;6.74;76.22;102758.38;4966290;29;20043;-84
2022/01/28 15:05:29;;;;;;;19.75;7.38;;;;;;;6.72;77.17;102783.63;4967406;29;20063;-85
2022/01/28 15:07:56;;;;;;;16.20;7.80;;;;;;;6.69;78.03;102795.94;4967292;28;20055;-86
2022/01/28 15:10:27;;;;;;;17.67;7.90;;;;;;;6.67;78.25;102806.44;4967455;29;20051;-86
2022/01/28 15:12:56;;;;;;;18.58;7.85;;;;;;;6.52;77.97;102787.25;4984726;28;20098;-85
2022/01/28 15:15:23;;;;;;;20.35;7.07;;;;;;;6.58;78.42;102819.91;4986759;28;20046;-86
2022/01/28 15:17:55;;;;;;;17.13;7.57;;;;;;;6.52;78.74;102815.88;4988041;28;20037;-82
2022/01/28 15:20:24;;;;;;;18.30;8.20;;;;;;;6.38;79.16;102799.25;4990865;28;20196;-85
2022/01/28 15:22:50;;;;;;;20.95;8.32;;;;;;;6.37;79.47;102816.63;4985152;28;20050;-84
2022/01/28 15:25:17;;;;;;;22.00;7.95;;;;;;;6.24;79.98;102811.16;4984659;28;20054;-85
2022/01/28 15:27:54;;;;;;;23.05;8.27;;;;;;;6.15;80.99;102811.59;4985318;28;20051;-86
2022/01/28 15:30:29;;;;;;;21.52;8.50;;;;;;;5.98;80.79;102789.06;4985800;28;20082;-86
2022/01/28 15:36:00;;;;;;;15.55;8.20;;;;;;;6.00;81.25;102822.75;4982748;28;20097;-81
2022/01/28 15:38:27;;;;;;;24.20;7.22;;;;;;;5.90;82.13;102824.94;4983853;28;20093;-84
2022/01/28 15:40:54;;;;;;;19.30;7.97;;;;;;;5.90;81.80;102826.72;4982403;28;20415;-83
2022/01/28 15:43:22;;;;;;;22.10;7.72;;;;;;;5.81;82.71;102821.91;4982663;28;20050;-83
2022/01/28 15:45:48;;;;;;;18.10;9.05;;;;;;;5.77;83.33;102820.38;4982730;28;20137;-82
2022/01/28 15:48:15;;;;;;;22.25;8.13;;;;;;;5.80;83.07;102820.22;4982384;28;20070;-85
2022/01/28 15:50:47;;;;;;;24.30;8.10;;;;;;;5.82;83.24;102826.19;4981971;28;20089;-84
2022/01/28 15:53:13;;;;;;;23.05;8.27;;;;;;;5.84;83.85;102811.38;4981726;28;20082;-85
2022/01/28 15:55:40;;;;;;;19.50;9.40;;;;;;;5.76;84.54;102809.13;4982312;28;20073;-84
2022/01/28 15:58:06;;;;;;;24.73;9.02;;;;;;;5.75;84.76;102827.38;4982408;28;20578;-84
2022/01/28 16:00:35;;;;;;;26.25;10.98;;;;;;;5.73;85.03;102813.63;4982773;28;20487;-85
2022/01/28 16:03:02;;;;;;;26.17;11.05;;;;;;;5.77;85.50;102815.16;4981949;28;20051;-84
2022/01/28 16:05:28;;;;;;;32.05;11.45;;;;;;;5.71;85.63;102823.25;4982204;28;20066;-84
2022/01/28 16:07:55;;;;;;;32.88;14.10;;;;;;;5.65;87.32;102824.41;4981933;28;20065;-84
2022/01/28 16:10:31;;;;;;;28.05;14.27;;;;;;;5.61;87.09;102834.09;4982902;28;20138;-84
2022/01/28 16:13:14;;;;;;;35.72;16.52;;;;;;;5.57;87.83;102835.13;4983598;28;20496;-84
2022/01/28 16:18:23;;;;;;;34.08;18.23;;;;;;;5.53;88.32;102836.19;4981103;28;20078;-83
2022/01/28 16:20:49;;;;;;;44.28;20.50;;;;;;;5.46;88.67;102832.16;4983831;28;20094;-85
2022/01/28 16:23:16;;;;;;;41.45;20.95;;;;;;;5.42;89.22;102842.75;4982743;28;20523;-83
2022/01/28 16:25:44;;;;;;;42.65;21.17;;;;;;;5.41;89.28;102831.53;4986957;28;20102;-84
2022/01/28 16:28:11;;;;;;;47.65;23.98;;;;;;;5.39;89.12;102837.72;4989595;28;20046;-84
2022/01/28 16:30:38;;;;;;;37.20;23.10;;;;;;;5.38;89.38;102823.88;4988115;28;20058;-85
2022/01/28 16:33:06;;;;;;;40.55;22.55;;;;;;;5.35;89.56;102834.41;4983907;28;20141;-84
2022/01/28 16:35:33;;;;;;;43.38;23.70;;;;;;;5.32;89.54;102829.34;4980761;28;20354;-83
2022/01/28 16:37:59;;;;;;;41.08;23.40;;;;;;;5.23;90.25;102825.41;4982323;28;20063;-83
2022/01/28 16:40:26;;;;;;;41.42;23.65;;;;;;;5.22;90.18;102817.69;4985141;28;20058;-85